createdAt,value
2022-09-23T00:00:33.856Z,1005.82
2022-09-23T00:01:34.126Z,1005.77
2022-09-23T00:02:35.099Z,1005.77
2022-09-23T00:03:33.783Z,1005.80
2022-09-23T00:04:33.996Z,1005.79
2022-09-23T00:05:33.762Z,1005.73
2022-09-23T00:06:33.760Z,1005.76
2022-09-23T00:07:40.849Z,1005.78
2022-09-23T00:08:34.928Z,1005.76
2022-09-23T00:09:33.936Z,1005.69
2022-09-23T00:10:34.717Z,1005.72
2022-09-23T00:11:49.398Z,1005.70
2022-09-23T00:12:33.704Z,1005.70
2022-09-23T00:13:33.888Z,1005.69
2022-09-23T00:14:41.167Z,1005.68
2022-09-23T00:15:34.114Z,1005.68
2022-09-23T00:16:33.709Z,1005.66
2022-09-23T00:17:33.638Z,1005.71
2022-09-23T00:18:33.626Z,1005.72
2022-09-23T00:19:33.621Z,1005.70
2022-09-23T00:20:36.644Z,1005.74
2022-09-23T00:21:33.816Z,1005.67
2022-09-23T00:22:33.854Z,1005.71
2022-09-23T00:23:33.800Z,1005.73
2022-09-23T00:24:33.552Z,1005.73
2022-09-23T00:25:33.541Z,1005.75
2022-09-23T00:26:33.780Z,1005.75
2022-09-23T00:27:33.520Z,1005.72
2022-09-23T00:28:36.606Z,1005.70
2022-09-23T00:29:36.533Z,1005.73
2022-09-23T00:30:33.501Z,1005.72
2022-09-23T00:31:34.515Z,1005.69
2022-09-23T00:32:34.740Z,1005.72
2022-09-23T00:33:33.705Z,1005.74
2022-09-23T00:34:36.494Z,1005.74
2022-09-23T00:35:33.436Z,1005.74
2022-09-23T00:36:33.441Z,1005.71
2022-09-23T00:37:33.663Z,1005.68
2022-09-23T00:38:33.416Z,1005.66
2022-09-23T00:39:34.641Z,1005.69
2022-09-23T00:40:33.418Z,1005.65
2022-09-23T00:41:33.385Z,1005.66
2022-09-23T00:42:34.362Z,1005.71
2022-09-23T00:43:33.342Z,1005.63
2022-09-23T00:44:33.370Z,1005.58
2022-09-23T00:45:33.363Z,1005.61
2022-09-23T00:46:34.609Z,1005.61
2022-09-23T00:47:33.314Z,1005.58
2022-09-23T00:48:36.588Z,1005.59
2022-09-23T00:49:33.542Z,1005.60
2022-09-23T00:50:33.541Z,1005.58
2022-09-23T00:51:33.497Z,1005.59
2022-09-23T00:52:36.333Z,1005.56
2022-09-23T00:53:33.491Z,1005.58
2022-09-23T00:54:33.439Z,1005.55
2022-09-23T00:55:33.485Z,1005.52
2022-09-23T00:56:34.448Z,1005.53
2022-09-23T00:57:36.486Z,1005.52
2022-09-23T00:58:36.475Z,1005.56
2022-09-23T00:59:33.431Z,1005.52
2022-09-23T01:00:33.232Z,1005.51
2022-09-23T01:01:36.533Z,1005.54
2022-09-23T01:02:34.772Z,1005.50
2022-09-23T01:03:33.185Z,1005.51
2022-09-23T01:04:33.141Z,1005.52
2022-09-23T01:05:36.160Z,1005.51
2022-09-23T01:06:36.128Z,1005.49
2022-09-23T01:07:33.102Z,1005.50
2022-09-23T01:08:34.103Z,1005.48
2022-09-23T01:09:33.318Z,1005.45
2022-09-23T01:10:33.087Z,1005.45
2022-09-23T01:11:33.314Z,1005.46
2022-09-23T01:12:48.289Z,1005.44
2022-09-23T01:13:33.038Z,1005.44
2022-09-23T01:14:34.272Z,1005.42
2022-09-23T01:15:36.543Z,1005.44
2022-09-23T01:16:33.069Z,1005.41
2022-09-23T01:17:33.003Z,1005.39
2022-09-23T01:18:34.011Z,1005.39
2022-09-23T01:19:36.033Z,1005.41
2022-09-23T01:20:33.165Z,1005.41
2022-09-23T01:21:33.976Z,1005.39
2022-09-23T01:22:33.210Z,1005.36
2022-09-23T01:23:33.937Z,1005.38
2022-09-23T01:24:32.937Z,1005.38
2022-09-23T01:25:32.929Z,1005.38
2022-09-23T01:26:33.120Z,1005.39
2022-09-23T01:27:33.159Z,1005.41
2022-09-23T01:28:35.928Z,1005.38
2022-09-23T01:29:34.105Z,1005.36
2022-09-23T01:30:33.913Z,1005.36
2022-09-23T01:31:32.911Z,1005.37
2022-09-23T01:32:32.834Z,1005.38
2022-09-23T01:33:32.816Z,1005.36
2022-09-23T01:34:32.829Z,1005.34
2022-09-23T01:35:36.087Z,1005.36
2022-09-23T01:36:48.261Z,1005.34
2022-09-23T01:37:32.821Z,1005.30
2022-09-23T01:38:33.788Z,1005.32
2022-09-23T01:39:32.769Z,1005.30
2022-09-23T01:40:32.828Z,1005.33
2022-09-23T01:41:33.761Z,1005.33
2022-09-23T01:42:32.736Z,1005.32
2022-09-23T01:43:32.718Z,1005.31
2022-09-23T01:44:32.986Z,1005.29
2022-09-23T01:45:32.969Z,1005.26
2022-09-23T01:46:35.695Z,1005.28
2022-09-23T01:47:32.682Z,1005.25
2022-09-23T01:48:32.742Z,1005.27
2022-09-23T01:49:32.929Z,1005.28
2022-09-23T01:50:32.867Z,1005.24
2022-09-23T01:51:33.891Z,1005.24
2022-09-23T01:52:32.643Z,1005.24
2022-09-23T01:53:33.626Z,1005.21
2022-09-23T01:54:32.824Z,1005.22
2022-09-23T01:55:32.588Z,1005.22
2022-09-23T01:56:33.621Z,1005.23
2022-09-23T01:57:32.599Z,1005.21
2022-09-23T01:58:32.822Z,1005.27
2022-09-23T01:59:32.562Z,1005.26
2022-09-23T02:00:35.583Z,1005.27
2022-09-23T02:01:32.592Z,1005.29
2022-09-23T02:02:32.580Z,1005.26
2022-09-23T02:03:33.510Z,1005.27
2022-09-23T02:04:32.508Z,1005.25
2022-09-23T02:05:32.520Z,1005.26
2022-09-23T02:06:33.497Z,1005.21
2022-09-23T02:07:32.480Z,1005.18
2022-09-23T02:08:35.491Z,1005.19
2022-09-23T02:09:33.472Z,1005.20
2022-09-23T02:10:32.463Z,1005.19
2022-09-23T02:11:32.453Z,1005.18
2022-09-23T02:12:32.432Z,1005.15
2022-09-23T02:13:32.418Z,1005.16
2022-09-23T02:14:32.402Z,1005.13
2022-09-23T02:15:32.454Z,1005.12
2022-09-23T02:16:33.458Z,1005.12
2022-09-23T02:17:33.448Z,1005.16
2022-09-23T02:18:47.784Z,1005.09
2022-09-23T02:19:32.354Z,1005.13
2022-09-23T02:20:32.357Z,1005.11
2022-09-23T02:21:32.354Z,1005.10
2022-09-23T02:22:32.303Z,1005.09
2022-09-23T02:23:32.555Z,1005.11
2022-09-23T02:24:32.508Z,1005.09
2022-09-23T02:25:32.572Z,1005.06
2022-09-23T02:26:32.497Z,1005.05
2022-09-23T02:27:35.290Z,1005.09
2022-09-23T02:28:32.257Z,1005.09
2022-09-23T02:29:32.246Z,1005.10
2022-09-23T02:30:32.484Z,1005.13
2022-09-23T02:31:32.249Z,1005.09
2022-09-23T02:32:32.457Z,1005.08
2022-09-23T02:33:32.202Z,1005.11
2022-09-23T02:34:35.213Z,1005.13
2022-09-23T02:35:35.249Z,1005.15
2022-09-23T02:36:32.387Z,1005.13
2022-09-23T02:37:32.415Z,1005.17
2022-09-23T02:38:32.375Z,1005.10
2022-09-23T02:39:32.345Z,1005.09
2022-09-23T02:40:33.212Z,1005.11
2022-09-23T02:41:32.345Z,1005.10
2022-09-23T02:42:39.544Z,1005.08
2022-09-23T02:43:32.133Z,1005.05
2022-09-23T02:44:35.106Z,1005.06
2022-09-23T02:45:39.544Z,1005.07
2022-09-23T02:46:39.405Z,1005.06
2022-09-23T02:47:32.065Z,1005.07
2022-09-23T02:48:32.043Z,1005.03
2022-09-23T02:49:35.109Z,1005.01
2022-09-23T02:50:32.036Z,1005.04
2022-09-23T02:51:32.280Z,1004.99
2022-09-23T02:52:32.258Z,1005.00
2022-09-23T02:53:33.506Z,1004.98
2022-09-23T02:54:33.004Z,1005.01
2022-09-23T02:55:31.964Z,1004.98
2022-09-23T02:56:31.976Z,1005.02
2022-09-23T02:57:32.182Z,1004.95
2022-09-23T02:58:32.193Z,1004.97
2022-09-23T02:59:32.161Z,1004.95
2022-09-23T03:00:31.945Z,1004.95
2022-09-23T03:01:32.029Z,1004.91
2022-09-23T03:02:31.961Z,1004.94
2022-09-23T03:03:39.072Z,1004.91
2022-09-23T03:04:31.880Z,1004.94
2022-09-23T03:05:31.865Z,1004.88
2022-09-23T03:06:32.074Z,1004.92
2022-09-23T03:07:32.089Z,1004.87
2022-09-23T03:08:31.815Z,1004.89
2022-09-23T03:09:32.068Z,1004.88
2022-09-23T03:10:32.047Z,1004.87
2022-09-23T03:11:35.070Z,1004.85
2022-09-23T03:12:31.838Z,1004.85
2022-09-23T03:13:34.788Z,1004.82
2022-09-23T03:14:31.780Z,1004.84
2022-09-23T03:15:31.747Z,1004.84
2022-09-23T03:16:32.859Z,1004.84
2022-09-23T03:17:31.773Z,1004.85
2022-09-23T03:18:32.982Z,1004.82
2022-09-23T03:19:32.771Z,1004.84
2022-09-23T03:20:34.745Z,1004.79
2022-09-23T03:21:31.760Z,1004.77
2022-09-23T03:22:31.942Z,1004.77
2022-09-23T03:23:32.692Z,1004.76
2022-09-23T03:24:32.691Z,1004.75
2022-09-23T03:25:31.667Z,1004.74
2022-09-23T03:26:32.892Z,1004.73
2022-09-23T03:27:31.612Z,1004.72
2022-09-23T03:28:31.850Z,1004.72
2022-09-23T03:29:31.609Z,1004.69
2022-09-23T03:30:31.646Z,1004.69
2022-09-23T03:31:31.892Z,1004.69
2022-09-23T03:32:32.841Z,1004.66
2022-09-23T03:33:34.587Z,1004.70
2022-09-23T03:34:34.598Z,1004.68
2022-09-23T03:35:34.607Z,1004.66
2022-09-23T03:36:31.541Z,1004.66
2022-09-23T03:37:32.215Z,1004.66
2022-09-23T03:38:31.796Z,1004.65
2022-09-23T03:39:31.514Z,1004.62
2022-09-23T03:40:31.564Z,1004.64
2022-09-23T03:41:31.493Z,1004.64
2022-09-23T03:42:32.500Z,1004.60
2022-09-23T03:43:39.104Z,1004.58
2022-09-23T03:44:31.449Z,1004.57
2022-09-23T03:45:31.483Z,1004.55
2022-09-23T03:46:34.454Z,1004.53
2022-09-23T03:47:31.423Z,1004.55
2022-09-23T03:48:31.648Z,1004.48
2022-09-23T03:49:34.409Z,1004.54
2022-09-23T03:50:31.416Z,1004.52
2022-09-23T03:51:31.613Z,1004.50
2022-09-23T03:52:31.379Z,1004.48
2022-09-23T03:53:31.579Z,1004.48
2022-09-23T03:54:31.583Z,1004.46
2022-09-23T03:55:31.350Z,1004.49
2022-09-23T03:56:31.556Z,1004.49
2022-09-23T03:57:31.299Z,1004.49
2022-09-23T03:58:32.333Z,1004.46
2022-09-23T03:59:31.313Z,1004.46
2022-09-23T04:00:31.597Z,1004.46
2022-09-23T04:01:32.306Z,1004.49
2022-09-23T04:02:31.285Z,1004.47
2022-09-23T04:03:32.534Z,1004.45
2022-09-23T04:04:38.534Z,1004.51
2022-09-23T04:05:31.257Z,1004.49
2022-09-23T04:06:31.226Z,1004.45
2022-09-23T04:07:32.443Z,1004.47
2022-09-23T04:08:32.685Z,1004.46
2022-09-23T04:09:32.457Z,1004.45
2022-09-23T04:10:31.176Z,1004.45
2022-09-23T04:11:31.205Z,1004.46
2022-09-23T04:12:38.264Z,1004.43
2022-09-23T04:13:32.387Z,1004.45
2022-09-23T04:14:32.378Z,1004.45
2022-09-23T04:15:32.145Z,1004.37
2022-09-23T04:16:31.475Z,1004.43
2022-09-23T04:17:31.168Z,1004.41
2022-09-23T04:18:31.115Z,1004.36
2022-09-23T04:19:31.076Z,1004.37
2022-09-23T04:20:31.343Z,1004.41
2022-09-23T04:21:31.065Z,1004.39
2022-09-23T04:22:52.324Z,1004.39
2022-09-23T04:23:34.067Z,1004.38
2022-09-23T04:24:34.062Z,1004.37
2022-09-23T04:25:31.041Z,1004.39
2022-09-23T04:26:31.008Z,1004.38
2022-09-23T04:27:35.434Z,1004.38
2022-09-23T04:28:32.000Z,1004.38
2022-09-23T04:29:38.397Z,1004.43
2022-09-23T04:30:30.967Z,1004.39
2022-09-23T04:31:30.998Z,1004.40
2022-09-23T04:32:32.216Z,1004.41
2022-09-23T04:33:30.985Z,1004.39
2022-09-23T04:34:30.952Z,1004.41
2022-09-23T04:35:37.954Z,1004.40
2022-09-23T04:36:34.957Z,1004.41
2022-09-23T04:37:33.941Z,1004.40
2022-09-23T04:38:30.906Z,1004.42
2022-09-23T04:39:30.882Z,1004.42
2022-09-23T04:40:30.917Z,1004.39
2022-09-23T04:41:38.029Z,1004.40
2022-09-23T04:42:31.869Z,1004.33
2022-09-23T04:43:30.849Z,1004.42
2022-09-23T04:44:30.865Z,1004.39
2022-09-23T04:45:31.052Z,1004.38
2022-09-23T04:46:31.105Z,1004.35
2022-09-23T04:47:31.822Z,1004.34
2022-09-23T04:48:32.051Z,1004.37
2022-09-23T04:49:30.806Z,1004.37
2022-09-23T04:50:37.920Z,1004.36
2022-09-23T04:51:30.770Z,1004.37
2022-09-23T04:52:30.730Z,1004.38
2022-09-23T04:53:30.722Z,1004.38
2022-09-23T04:54:31.730Z,1004.43
2022-09-23T04:55:30.733Z,1004.43
2022-09-23T04:56:31.921Z,1004.41
2022-09-23T04:57:31.770Z,1004.40
2022-09-23T04:58:30.907Z,1004.39
2022-09-23T04:59:31.753Z,1004.41
2022-09-23T05:00:30.718Z,1004.38
2022-09-23T05:01:30.697Z,1004.45
2022-09-23T05:02:31.972Z,1004.46
2022-09-23T05:03:30.875Z,1004.45
2022-09-23T05:04:33.640Z,1004.46
2022-09-23T05:05:30.639Z,1004.45
2022-09-23T05:06:30.620Z,1004.45
2022-09-23T05:07:30.615Z,1004.44
2022-09-23T05:08:30.588Z,1004.47
2022-09-23T05:09:30.553Z,1004.45
2022-09-23T05:10:33.581Z,1004.42
2022-09-23T05:11:30.562Z,1004.42
2022-09-23T05:12:30.819Z,1004.45
2022-09-23T05:13:31.534Z,1004.45
2022-09-23T05:14:58.686Z,1004.45
2022-09-23T05:15:33.564Z,1004.47
2022-09-23T05:16:30.803Z,1004.47
2022-09-23T05:17:30.528Z,1004.46
2022-09-23T05:18:30.452Z,1004.49
2022-09-23T05:19:30.461Z,1004.43
2022-09-23T05:20:31.475Z,1004.48
2022-09-23T05:21:30.428Z,1004.50
2022-09-23T05:22:30.621Z,1004.49
2022-09-23T05:23:30.415Z,1004.50
2022-09-23T05:24:37.715Z,1004.50
2022-09-23T05:25:33.163Z,1004.52
2022-09-23T05:26:33.426Z,1004.48
2022-09-23T05:27:30.626Z,1004.52
2022-09-23T05:28:51.612Z,1004.49
2022-09-23T05:29:30.590Z,1004.51
2022-09-23T05:30:30.369Z,1004.50
2022-09-23T05:31:31.493Z,1004.53
2022-09-23T05:32:31.575Z,1004.48
2022-09-23T05:33:30.337Z,1004.51
2022-09-23T05:34:31.564Z,1004.48
2022-09-23T05:35:33.313Z,1004.49
2022-09-23T05:36:52.283Z,1004.45
2022-09-23T05:37:30.299Z,1004.50
2022-09-23T05:38:30.285Z,1004.48
2022-09-23T05:39:30.475Z,1004.48
2022-09-23T05:40:30.295Z,1004.45
2022-09-23T05:41:33.463Z,1004.43
2022-09-23T05:42:30.458Z,1004.45
2022-09-23T05:43:30.257Z,1004.40
2022-09-23T05:44:30.237Z,1004.46
2022-09-23T05:45:30.185Z,1004.46
2022-09-23T05:46:31.287Z,1004.41
2022-09-23T05:47:30.173Z,1004.46
2022-09-23T05:48:30.158Z,1004.41
2022-09-23T05:49:48.641Z,1004.49
2022-09-23T05:50:31.368Z,1004.48
2022-09-23T05:51:37.435Z,1004.50
2022-09-23T05:52:30.118Z,1004.47
2022-09-23T05:53:31.108Z,1004.48
2022-09-23T05:54:30.350Z,1004.45
2022-09-23T05:55:30.080Z,1004.45
2022-09-23T05:56:30.096Z,1004.45
2022-09-23T05:57:30.057Z,1004.45
2022-09-23T05:58:30.067Z,1004.48
2022-09-23T05:59:30.076Z,1004.48
2022-09-23T06:00:30.035Z,1004.46
2022-09-23T06:01:30.048Z,1004.47
2022-09-23T06:02:30.025Z,1004.50
2022-09-23T06:03:33.048Z,1004.51
2022-09-23T06:04:33.004Z,1004.50
2022-09-23T06:05:29.994Z,1004.52
2022-09-23T06:06:29.976Z,1004.52
2022-09-23T06:07:30.206Z,1004.53
2022-09-23T06:08:29.952Z,1004.50
2022-09-23T06:09:36.230Z,1004.51
2022-09-23T06:10:31.189Z,1004.54
2022-09-23T06:11:30.143Z,1004.56
2022-09-23T06:12:37.430Z,1004.54
2022-09-23T06:13:30.123Z,1004.47
2022-09-23T06:14:30.126Z,1004.53
2022-09-23T06:15:29.859Z,1004.52
2022-09-23T06:16:29.947Z,1004.51
2022-09-23T06:17:33.107Z,1004.52
2022-09-23T06:19:03.039Z,1004.51
2022-09-23T06:19:31.072Z,1004.48
2022-09-23T06:20:29.843Z,1004.53
2022-09-23T06:21:29.829Z,1004.50
2022-09-23T06:22:29.836Z,1004.46
2022-09-23T06:23:30.802Z,1004.45
2022-09-23T06:24:31.638Z,1004.46
2022-09-23T06:25:29.762Z,1004.47
2022-09-23T06:26:32.812Z,1004.50
2022-09-23T06:27:30.999Z,1004.47
2022-09-23T06:28:32.753Z,1004.49
2022-09-23T06:29:30.745Z,1004.46
2022-09-23T06:30:29.963Z,1004.47
2022-09-23T06:31:29.811Z,1004.48
2022-09-23T06:32:31.027Z,1004.40
2022-09-23T06:33:37.100Z,1004.44
2022-09-23T06:34:30.776Z,1004.42
2022-09-23T06:35:32.966Z,1004.38
2022-09-23T06:36:46.428Z,1004.38
2022-09-23T06:37:29.645Z,1004.35
2022-09-23T06:38:50.645Z,1004.32
2022-09-23T06:39:32.889Z,1004.31
2022-09-23T06:40:37.065Z,1004.35
2022-09-23T06:41:30.760Z,1004.31
2022-09-23T06:42:29.615Z,1004.30
2022-09-23T06:43:29.564Z,1004.33
2022-09-23T06:44:32.613Z,1004.32
2022-09-23T06:45:30.558Z,1004.34
2022-09-23T06:46:29.836Z,1004.32
2022-09-23T06:47:29.548Z,1004.35
2022-09-23T06:48:29.525Z,1004.35
2022-09-23T06:49:30.525Z,1004.35
2022-09-23T06:50:29.505Z,1004.37
2022-09-23T06:51:30.500Z,1004.38
2022-09-23T06:52:36.713Z,1004.36
2022-09-23T06:53:29.504Z,1004.38
2022-09-23T06:54:30.494Z,1004.32
2022-09-23T06:55:29.486Z,1004.40
2022-09-23T06:56:31.496Z,1004.35
2022-09-23T06:57:30.450Z,1004.34
2022-09-23T06:58:29.450Z,1004.39
2022-09-23T06:59:29.459Z,1004.40
2022-09-23T07:00:36.645Z,1004.38
2022-09-23T07:01:29.726Z,1004.38
2022-09-23T07:02:44.761Z,1004.39
2022-09-23T07:03:29.376Z,1004.38
2022-09-23T07:04:29.543Z,1004.34
2022-09-23T07:05:36.410Z,1004.38
2022-09-23T07:06:32.387Z,1004.37
2022-09-23T07:07:29.571Z,1004.39
2022-09-23T07:08:29.316Z,1004.42
2022-09-23T07:09:29.325Z,1004.43
2022-09-23T07:10:30.313Z,1004.38
2022-09-23T07:11:29.509Z,1004.41
2022-09-23T07:12:30.509Z,1004.41
2022-09-23T07:13:36.410Z,1004.38
2022-09-23T07:14:29.505Z,1004.38
2022-09-23T07:15:51.544Z,1004.36
2022-09-23T07:16:29.284Z,1004.36
2022-09-23T07:17:51.495Z,1004.34
2022-09-23T07:18:32.020Z,1004.34
2022-09-23T07:19:30.245Z,1004.33
2022-09-23T07:20:29.205Z,1004.35
2022-09-23T07:21:29.173Z,1004.30
2022-09-23T07:22:30.399Z,1004.28
2022-09-23T07:23:29.160Z,1004.25
2022-09-23T07:24:29.369Z,1004.25
2022-09-23T07:25:29.173Z,1004.22
2022-09-23T07:26:50.123Z,1004.20
2022-09-23T07:27:29.385Z,1004.18
2022-09-23T07:28:29.189Z,1004.18
2022-09-23T07:29:32.912Z,1004.20
2022-09-23T07:30:30.104Z,1004.18
2022-09-23T07:31:38.565Z,1004.21
2022-09-23T07:32:47.618Z,1004.17
2022-09-23T07:33:32.465Z,1004.13
2022-09-23T07:34:29.287Z,1004.10
2022-09-23T07:35:29.297Z,1004.15
2022-09-23T07:36:36.211Z,1004.12
2022-09-23T07:37:29.237Z,1004.13
2022-09-23T07:38:29.252Z,1004.11
2022-09-23T07:39:29.009Z,1004.15
2022-09-23T07:40:29.076Z,1004.17
2022-09-23T07:41:29.195Z,1004.16
2022-09-23T07:42:28.962Z,1004.16
2022-09-23T07:43:29.174Z,1004.13
2022-09-23T07:44:28.961Z,1004.12
2022-09-23T07:45:44.319Z,1004.16
2022-09-23T07:46:29.246Z,1004.19
2022-09-23T07:47:28.923Z,1004.17
2022-09-23T07:48:36.077Z,1004.22
2022-09-23T07:49:29.128Z,1004.23
2022-09-23T07:50:29.105Z,1004.22
2022-09-23T07:51:34.809Z,1004.20
2022-09-23T07:52:30.071Z,1004.25
2022-09-23T07:53:28.836Z,1004.22
2022-09-23T07:54:44.437Z,1004.24
2022-09-23T07:55:29.055Z,1004.24
2022-09-23T07:56:29.070Z,1004.23
2022-09-23T07:57:29.041Z,1004.21
2022-09-23T07:58:30.044Z,1004.21
2022-09-23T07:59:28.808Z,1004.21
2022-09-23T08:00:28.761Z,1004.22
2022-09-23T08:01:29.056Z,1004.25
2022-09-23T08:02:28.789Z,1004.18
2022-09-23T08:03:31.765Z,1004.18
2022-09-23T08:04:31.765Z,1004.21
2022-09-23T08:05:28.703Z,1004.24
2022-09-23T08:06:31.743Z,1004.21
2022-09-23T08:07:28.933Z,1004.23
2022-09-23T08:08:28.712Z,1004.18
2022-09-23T08:09:29.919Z,1004.20
2022-09-23T08:10:31.698Z,1004.20
2022-09-23T08:11:28.656Z,1004.20
2022-09-23T08:12:28.663Z,1004.22
2022-09-23T08:13:28.632Z,1004.18
2022-09-23T08:14:36.099Z,1004.15
2022-09-23T08:15:31.706Z,1004.16
2022-09-23T08:16:28.652Z,1004.16
2022-09-23T08:17:28.625Z,1004.15
2022-09-23T08:18:28.809Z,1004.18
2022-09-23T08:19:28.595Z,1004.16
2022-09-23T08:20:28.587Z,1004.18
2022-09-23T08:21:28.787Z,1004.16
2022-09-23T08:22:28.568Z,1004.15
2022-09-23T08:23:28.538Z,1004.06
2022-09-23T08:24:28.504Z,1004.06
2022-09-23T08:25:32.428Z,1004.11
2022-09-23T08:26:28.794Z,1004.09
2022-09-23T08:27:28.528Z,1004.10
2022-09-23T08:28:28.473Z,1004.08
2022-09-23T08:29:28.471Z,1004.08
2022-09-23T08:30:28.459Z,1004.06
2022-09-23T08:31:29.430Z,1004.03
2022-09-23T08:32:29.428Z,1004.05
2022-09-23T08:33:28.690Z,1004.06
2022-09-23T08:34:28.415Z,1004.06
2022-09-23T08:35:28.669Z,1004.06
2022-09-23T08:36:28.615Z,1004.10
2022-09-23T08:37:29.425Z,1004.10
2022-09-23T08:38:28.405Z,1004.08
2022-09-23T08:39:29.356Z,1004.08
2022-09-23T08:40:29.487Z,1004.11
2022-09-23T08:41:35.791Z,1004.09
2022-09-23T08:42:29.332Z,1004.12
2022-09-23T08:43:28.334Z,1004.09
2022-09-23T08:44:28.336Z,1004.13
2022-09-23T08:45:28.510Z,1004.09
2022-09-23T08:46:50.310Z,1004.08
2022-09-23T08:47:28.290Z,1004.09
2022-09-23T08:48:28.259Z,1004.10
2022-09-23T08:49:28.749Z,1004.07
2022-09-23T08:50:29.280Z,1004.07
2022-09-23T08:51:28.474Z,1004.05
2022-09-23T08:52:29.463Z,1004.07
2022-09-23T08:53:29.464Z,1004.05
2022-09-23T08:54:28.220Z,1004.08
2022-09-23T08:55:31.236Z,1004.05
2022-09-23T08:56:29.417Z,1004.06
2022-09-23T08:57:28.172Z,1004.03
2022-09-23T08:58:28.386Z,1004.05
2022-09-23T08:59:28.411Z,1004.08
2022-09-23T09:00:28.165Z,1004.06
2022-09-23T09:01:28.199Z,1004.06
2022-09-23T09:02:28.463Z,1004.10
2022-09-23T09:03:29.146Z,1004.12
2022-09-23T09:04:28.139Z,1004.12
2022-09-23T09:05:29.111Z,1004.17
2022-09-23T09:06:28.089Z,1004.16
2022-09-23T09:07:37.693Z,1004.17
2022-09-23T09:08:29.069Z,1004.16
2022-09-23T09:09:28.071Z,1004.14
2022-09-23T09:10:31.377Z,1004.13
2022-09-23T09:11:28.269Z,1004.16
2022-09-23T09:12:49.020Z,1004.08
2022-09-23T09:13:28.184Z,1004.14
2022-09-23T09:14:28.216Z,1004.09
2022-09-23T09:15:28.337Z,1004.06
2022-09-23T09:16:55.525Z,1004.07
2022-09-23T09:17:32.997Z,1004.07
2022-09-23T09:18:36.071Z,1004.08
2022-09-23T09:19:27.949Z,1004.05
2022-09-23T09:20:35.090Z,1003.99
2022-09-23T09:21:27.937Z,1003.98
2022-09-23T09:22:28.173Z,1004.01
2022-09-23T09:23:29.147Z,1003.99
2022-09-23T09:24:35.214Z,1003.99
2022-09-23T09:25:32.133Z,1003.98
2022-09-23T09:26:30.078Z,1003.98
2022-09-23T09:27:27.845Z,1003.98
2022-09-23T09:28:27.839Z,1003.95
2022-09-23T09:29:35.543Z,1003.96
2022-09-23T09:30:29.075Z,1003.94
2022-09-23T09:31:28.097Z,1003.88
2022-09-23T09:32:28.035Z,1003.90
2022-09-23T09:33:28.878Z,1003.90
2022-09-23T09:34:28.023Z,1003.87
2022-09-23T09:35:29.001Z,1003.89
2022-09-23T09:36:27.791Z,1003.91
2022-09-23T09:37:31.443Z,1003.79
2022-09-23T09:38:28.753Z,1003.87
2022-09-23T09:39:28.751Z,1003.88
2022-09-23T09:40:28.858Z,1003.82
2022-09-23T09:41:28.005Z,1003.86
2022-09-23T09:42:30.941Z,1003.81
2022-09-23T09:43:48.698Z,1003.79
2022-09-23T09:44:28.706Z,1003.81
2022-09-23T09:45:33.383Z,1003.80
2022-09-23T09:46:30.940Z,1003.76
2022-09-23T09:47:27.664Z,1003.76
2022-09-23T09:48:30.727Z,1003.79
2022-09-23T09:49:28.639Z,1003.72
2022-09-23T09:50:27.600Z,1003.71
2022-09-23T09:51:27.820Z,1003.73
2022-09-23T09:52:27.833Z,1003.65
2022-09-23T09:53:27.520Z,1003.70
2022-09-23T09:54:30.560Z,1003.69
2022-09-23T09:55:28.520Z,1003.67
2022-09-23T09:56:27.520Z,1003.69
2022-09-23T09:57:30.735Z,1003.65
2022-09-23T09:58:29.520Z,1003.62
2022-09-23T09:59:27.717Z,1003.64
2022-09-23T10:00:27.529Z,1003.63
2022-09-23T10:01:27.446Z,1003.65
2022-09-23T10:02:27.676Z,1003.64
2022-09-23T10:03:27.440Z,1003.62
2022-09-23T10:04:27.445Z,1003.60
2022-09-23T10:05:28.408Z,1003.59
2022-09-23T10:06:27.405Z,1003.58
2022-09-23T10:07:27.616Z,1003.59
2022-09-23T10:08:27.370Z,1003.54
2022-09-23T10:09:27.347Z,1003.53
2022-09-23T10:10:34.443Z,1003.52
2022-09-23T10:11:29.352Z,1003.53
2022-09-23T10:12:27.334Z,1003.51
2022-09-23T10:13:27.323Z,1003.49
2022-09-23T10:14:27.985Z,1003.51
2022-09-23T10:15:27.302Z,1003.44
2022-09-23T10:16:27.372Z,1003.47
2022-09-23T10:17:28.538Z,1003.47
2022-09-23T10:18:34.534Z,1003.44
2022-09-23T10:19:27.500Z,1003.41
2022-09-23T10:20:27.464Z,1003.39
2022-09-23T10:21:30.236Z,1003.42
2022-09-23T10:22:27.434Z,1003.37
2022-09-23T10:23:28.458Z,1003.36
2022-09-23T10:24:27.212Z,1003.37
2022-09-23T10:25:27.161Z,1003.38
2022-09-23T10:26:27.394Z,1003.39
2022-09-23T10:27:27.406Z,1003.34
2022-09-23T10:28:30.411Z,1003.31
2022-09-23T10:29:27.417Z,1003.33
2022-09-23T10:30:30.457Z,1003.35
2022-09-23T10:31:34.292Z,1003.36
2022-09-23T10:32:30.363Z,1003.35
2022-09-23T10:33:27.098Z,1003.33
2022-09-23T10:34:27.103Z,1003.35
2022-09-23T10:35:27.344Z,1003.29
2022-09-23T10:36:30.315Z,1003.27
2022-09-23T10:37:27.074Z,1003.24
2022-09-23T10:38:27.040Z,1003.25
2022-09-23T10:39:27.090Z,1003.23
2022-09-23T10:40:27.070Z,1003.19
2022-09-23T10:41:28.056Z,1003.16
2022-09-23T10:42:27.241Z,1003.16
2022-09-23T10:43:27.020Z,1003.14
2022-09-23T10:44:34.064Z,1003.12
2022-09-23T10:45:27.012Z,1003.12
2022-09-23T10:46:27.296Z,1003.12
2022-09-23T10:47:26.966Z,1003.13
2022-09-23T10:48:27.190Z,1003.13
2022-09-23T10:49:27.956Z,1003.13
2022-09-23T10:50:27.178Z,1003.15
2022-09-23T10:51:27.161Z,1003.12
2022-09-23T10:52:26.909Z,1003.12
2022-09-23T10:53:33.970Z,1003.13
2022-09-23T10:54:27.887Z,1003.11
2022-09-23T10:55:26.883Z,1003.10
2022-09-23T10:56:27.112Z,1003.14
2022-09-23T10:57:34.091Z,1003.07
2022-09-23T10:58:26.839Z,1003.05
2022-09-23T10:59:27.888Z,1003.07
2022-09-23T11:00:27.862Z,1003.03
2022-09-23T11:01:27.146Z,1003.02
2022-09-23T11:02:27.065Z,1003.03
2022-09-23T11:03:26.785Z,1003.06
2022-09-23T11:04:27.052Z,1003.05
2022-09-23T11:05:27.022Z,1003.01
2022-09-23T11:06:27.013Z,1003.02
2022-09-23T11:07:26.767Z,1003.02
2022-09-23T11:08:26.978Z,1003.02
2022-09-23T11:09:27.020Z,1003.01
2022-09-23T11:10:47.865Z,1002.96
2022-09-23T11:11:29.744Z,1002.96
2022-09-23T11:12:29.733Z,1002.85
2022-09-23T11:13:26.712Z,1002.93
2022-09-23T11:14:33.719Z,1002.89
2022-09-23T11:15:26.680Z,1002.81
2022-09-23T11:16:26.701Z,1002.78
2022-09-23T11:17:26.655Z,1002.79
2022-09-23T11:18:26.668Z,1002.77
2022-09-23T11:19:26.665Z,1002.72
2022-09-23T11:20:27.677Z,1002.79
2022-09-23T11:21:26.643Z,1002.78
2022-09-23T11:22:26.611Z,1002.79
2022-09-23T11:23:26.600Z,1002.76
2022-09-23T11:24:26.583Z,1002.76
2022-09-23T11:25:27.591Z,1002.77
2022-09-23T11:26:33.076Z,1002.76
2022-09-23T11:27:29.624Z,1002.74
2022-09-23T11:28:27.541Z,1002.71
2022-09-23T11:29:27.553Z,1002.66
2022-09-23T11:30:26.587Z,1002.65
2022-09-23T11:31:33.631Z,1002.64
2022-09-23T11:32:26.491Z,1002.70
2022-09-23T11:33:26.487Z,1002.66
2022-09-23T11:34:26.724Z,1002.68
2022-09-23T11:35:33.761Z,1002.67
2022-09-23T11:36:27.486Z,1002.66
2022-09-23T11:37:26.685Z,1002.60
2022-09-23T11:38:26.661Z,1002.63
2022-09-23T11:39:26.449Z,1002.59
2022-09-23T11:40:26.671Z,1002.58
2022-09-23T11:41:26.432Z,1002.62
2022-09-23T11:42:42.023Z,1002.59
2022-09-23T11:43:26.411Z,1002.57
2022-09-23T11:44:26.619Z,1002.51
2022-09-23T11:45:26.600Z,1002.50
2022-09-23T11:46:26.447Z,1002.50
2022-09-23T11:47:26.314Z,1002.43
2022-09-23T11:48:26.552Z,1002.41
2022-09-23T11:49:26.299Z,1002.44
2022-09-23T11:50:26.338Z,1002.45
2022-09-23T11:51:26.556Z,1002.47
2022-09-23T11:52:26.311Z,1002.44
2022-09-23T11:53:29.334Z,1002.39
2022-09-23T11:54:26.256Z,1002.44
2022-09-23T11:55:26.514Z,1002.45
2022-09-23T11:56:34.896Z,1002.44
2022-09-23T11:57:27.811Z,1002.37
2022-09-23T11:58:26.495Z,1002.41
2022-09-23T11:59:35.984Z,1002.42
2022-09-23T12:00:27.244Z,1002.40
2022-09-23T12:01:35.090Z,1002.39
2022-09-23T12:02:30.856Z,1002.37
2022-09-23T12:03:39.486Z,1002.41
2022-09-23T12:04:34.693Z,1002.34
2022-09-23T12:05:26.637Z,1002.34